Time;durP1;ratioP1;P1;durP2;ratioP2;P2;SDS_P1;SDS_P2;PMS_P1;PMS_P2;Temp;Humidity;BMP_temperature;BMP_pressure;BME280_temperature;BME280_humidity;BME280_pressure;Samples;Min_cycle;Max_cycle;Signal;HPM_P1;HPM_P2
2023/08/22 00:01:27;;;;;;;;;;;;;;;31.15;100.00;98198.00;5093337;28;19932;-67
2023/08/22 00:03:56;;;;;;;;;;;;;;;31.21;100.00;98196.44;5096361;28;19932;-66
2023/08/22 00:06:23;;;;;;;;;;;;;;;31.25;100.00;98191.72;5098117;28;19947;-66
2023/08/22 00:08:49;;;;;;;;;;;;;;;31.21;100.00;98184.63;5098270;28;19943;-66
2023/08/22 00:11:16;;;;;;;;;;;;;;;31.21;100.00;98190.94;5097834;28;19939;-66
2023/08/22 00:13:42;;;;;;;;;;;;;;;31.19;100.00;98187.78;5095591;28;19948;-66
2023/08/22 00:16:08;;;;;;;;;;;;;;;31.17;100.00;98184.59;5101210;28;19924;-67
2023/08/22 00:18:36;;;;;;;;;;;;;;;31.17;100.00;98179.09;5097819;28;19924;-67
2023/08/22 00:21:03;;;;;;;;;;;;;;;31.00;100.00;98175.13;5097116;28;19959;-67
2023/08/22 00:23:30;;;;;;;;;;;;;;;30.96;100.00;98181.81;5093368;28;19959;-67
2023/08/22 00:25:56;;;;;;;;;;;;;;;30.97;100.00;98186.16;5095465;28;19932;-67
2023/08/22 00:28:23;;;;;;;;;;;;;;;31.00;100.00;98174.34;5097249;28;19928;-67
2023/08/22 00:30:52;;;;;;;;;;;;;;;31.02;100.00;98172.75;5097839;28;19952;-67
2023/08/22 00:33:18;;;;;;;;;;;;;;;30.92;100.00;98179.00;5097636;28;19928;-67
2023/08/22 00:35:46;;;;;;;;;;;;;;;30.80;100.00;98178.59;5095650;28;19924;-66
2023/08/22 00:38:12;;;;;;;;;;;;;;;30.78;100.00;98181.75;5100238;28;19924;-65
2023/08/22 00:40:39;;;;;;;;;;;;;;;30.84;100.00;98173.88;5097678;28;19931;-67
2023/08/22 00:43:05;;;;;;;;;;;;;;;30.90;100.00;98175.06;5097151;28;19920;-67
2023/08/22 00:45:32;;;;;;;;;;;;;;;30.90;100.00;98169.56;5092008;28;19924;-66
2023/08/22 00:47:58;;;;;;;;;;;;;;;30.88;100.00;98163.66;5095468;28;19928;-67
2023/08/22 00:50:25;;;;;;;;;;;;;;;30.88;100.00;98172.72;5097055;28;19924;-67
2023/08/22 00:52:52;;;;;;;;;;;;;;;30.81;100.00;98171.91;5101267;28;19959;-67
2023/08/22 00:55:19;;;;;;;;;;;;;;;30.83;100.00;98175.03;5101169;28;19946;-67
2023/08/22 00:57:46;;;;;;;;;;;;;;;30.81;100.00;98169.94;5099492;28;19924;-67
2023/08/22 01:00:13;;;;;;;;;;;;;;;30.78;100.00;98170.72;5096267;28;19947;-67
2023/08/22 01:02:39;;;;;;;;;;;;;;;30.80;100.00;98171.09;5108826;28;19931;-67
2023/08/22 01:05:07;;;;;;;;;;;;;;;30.84;100.00;98166.41;5101055;28;19946;-67
2023/08/22 01:07:36;;;;;;;;;;;;;;;30.75;100.00;98165.97;5104242;28;19980;-67
2023/08/22 01:10:07;;;;;;;;;;;;;;;30.74;100.00;98169.91;5098057;28;19924;-68
2023/08/22 01:12:38;;;;;;;;;;;;;;;30.59;100.00;98175.75;5097029;28;19909;-67
2023/08/22 01:15:07;;;;;;;;;;;;;;;30.47;100.00;98169.44;5113992;28;19912;-67
2023/08/22 01:17:34;;;;;;;;;;;;;;;30.58;100.00;98163.19;5101366;28;19920;-67
2023/08/22 01:20:00;;;;;;;;;;;;;;;30.59;100.00;98160.00;5102714;28;20492;-67
2023/08/22 01:22:28;;;;;;;;;;;;;;;30.60;100.00;98167.13;5101335;28;19925;-67
2023/08/22 01:24:54;;;;;;;;;;;;;;;30.68;100.00;98159.63;5102681;28;19912;-67
2023/08/22 01:27:22;;;;;;;;;;;;;;;30.65;100.00;98163.19;5100567;28;19924;-67
2023/08/22 01:29:52;;;;;;;;;;;;;;;30.64;100.00;98162.38;5098330;28;19935;-67
2023/08/22 01:32:21;;;;;;;;;;;;;;;30.58;100.00;98157.66;5096743;28;20016;-67
2023/08/22 01:34:48;;;;;;;;;;;;;;;30.58;100.00;98158.44;5098399;28;19924;-67
2023/08/22 01:37:15;;;;;;;;;;;;;;;30.44;100.00;98155.63;5108532;28;19952;-67
2023/08/22 01:39:45;;;;;;;;;;;;;;;30.38;100.00;98165.41;5096476;28;19963;-67
2023/08/22 01:42:12;;;;;;;;;;;;;;;30.30;100.00;98161.03;5096519;28;19924;-67
2023/08/22 01:44:38;;;;;;;;;;;;;;;30.42;100.00;98163.50;5099350;28;19960;-67
2023/08/22 01:47:05;;;;;;;;;;;;;;;30.48;100.00;98156.44;5097194;28;19924;-67
2023/08/22 01:49:35;;;;;;;;;;;;;;;30.52;100.00;98149.75;5100047;28;19924;-67
2023/08/22 01:52:02;;;;;;;;;;;;;;;30.50;100.00;98146.59;5099120;28;19963;-67
2023/08/22 01:54:28;;;;;;;;;;;;;;;30.40;100.00;98141.84;5096507;28;19999;-67
2023/08/22 01:56:56;;;;;;;;;;;;;;;30.29;100.00;98145.69;5097051;28;19932;-67
2023/08/22 01:59:22;;;;;;;;;;;;;;;30.36;100.00;98152.00;5108108;28;19983;-67
2023/08/22 02:01:49;;;;;;;;;;;;;;;30.42;100.00;98144.22;5097118;28;19959;-67
2023/08/22 02:04:15;;;;;;;;;;;;;;;30.46;100.00;98145.00;5096205;28;19924;-67
2023/08/22 02:06:42;;;;;;;;;;;;;;;30.53;100.00;98145.03;5098586;28;20292;-67
2023/08/22 02:09:09;;;;;;;;;;;;;;;30.55;100.00;98144.66;5099765;28;19935;-67
2023/08/22 02:11:36;;;;;;;;;;;;;;;30.53;100.00;98145.03;5099756;28;19988;-67
2023/08/22 02:14:04;;;;;;;;;;;;;;;30.54;100.00;98145.81;5098954;28;19955;-67
2023/08/22 02:16:30;;;;;;;;;;;;;;;30.54;100.00;98135.59;5094467;28;19956;-67
2023/08/22 02:18:56;;;;;;;;;;;;;;;30.44;100.00;98133.59;5100678;28;19925;-67
2023/08/22 02:21:23;;;;;;;;;;;;;;;30.37;100.00;98147.28;5099491;28;19924;-67
2023/08/22 02:23:49;;;;;;;;;;;;;;;30.37;100.00;98136.28;5096932;28;19967;-67
2023/08/22 02:26:16;;;;;;;;;;;;;;;30.38;100.00;98146.94;5095761;28;19931;-67
2023/08/22 02:28:42;;;;;;;;;;;;;;;30.31;100.00;98143.34;5097968;28;19925;-67
2023/08/22 02:31:10;;;;;;;;;;;;;;;30.35;100.00;98141.41;5099286;28;19928;-67
2023/08/22 02:33:36;;;;;;;;;;;;;;;30.18;100.00;98142.09;5099321;28;19961;-67
2023/08/22 02:36:03;;;;;;;;;;;;;;;29.97;100.00;98140.03;5099905;28;19951;-67
2023/08/22 02:38:29;;;;;;;;;;;;;;;29.43;100.00;98138.84;5099615;28;19924;-67
2023/08/22 02:40:56;;;;;;;;;;;;;;;29.68;100.00;98132.75;5099160;28;19932;-67
2023/08/22 02:43:22;;;;;;;;;;;;;;;29.61;100.00;98138.19;5098768;28;19963;-67
2023/08/22 02:45:49;;;;;;;;;;;;;;;29.63;100.00;98142.13;5095307;28;19933;-68
2023/08/22 02:48:16;;;;;;;;;;;;;;;29.76;100.00;98145.38;5095482;28;19925;-68
2023/08/22 02:50:43;;;;;;;;;;;;;;;29.81;100.00;98139.50;5097874;28;19960;-67
2023/08/22 02:53:14;;;;;;;;;;;;;;;29.97;100.00;98129.81;5099142;28;19952;-67
2023/08/22 02:55:40;;;;;;;;;;;;;;;29.84;100.00;98136.78;5103548;28;19989;-67
2023/08/22 02:58:07;;;;;;;;;;;;;;;30.01;100.00;98137.28;5095424;28;19932;-67
2023/08/22 03:00:34;;;;;;;;;;;;;;;30.04;100.00;98142.81;5098986;28;19951;-67
2023/08/22 03:03:00;;;;;;;;;;;;;;;30.08;100.00;98140.09;5098725;28;19991;-67
2023/08/22 03:05:28;;;;;;;;;;;;;;;30.09;100.00;98136.94;5098420;28;19932;-67
2023/08/22 03:07:54;;;;;;;;;;;;;;;30.12;100.00;98140.88;5096522;28;19925;-67
2023/08/22 03:10:21;;;;;;;;;;;;;;;30.06;100.00;98134.97;5094796;28;19924;-67
2023/08/22 03:12:50;;;;;;;;;;;;;;;30.06;100.00;98131.41;5096654;28;20590;-68
2023/08/22 03:15:16;;;;;;;;;;;;;;;29.86;100.00;98139.97;5099730;28;19932;-68
2023/08/22 03:17:42;;;;;;;;;;;;;;;29.92;100.00;98135.69;5091343;28;19929;-68
2023/08/22 03:20:09;;;;;;;;;;;;;;;29.96;100.00;98128.22;5099865;28;19974;-68
2023/08/22 03:22:37;;;;;;;;;;;;;;;30.01;100.00;98129.81;5099656;28;19920;-68
2023/08/22 03:25:04;;;;;;;;;;;;;;;30.02;100.00;98125.09;5099806;28;19931;-68
2023/08/22 03:27:30;;;;;;;;;;;;;;;30.04;100.00;98125.50;5102740;28;19924;-68
2023/08/22 03:29:57;;;;;;;;;;;;;;;30.04;100.00;98129.06;5103244;28;19924;-68
2023/08/22 03:32:23;;;;;;;;;;;;;;;30.03;100.00;98132.19;5101011;28;19951;-68
2023/08/22 03:34:49;;;;;;;;;;;;;;;30.04;100.00;98129.06;5099708;28;19924;-68
2023/08/22 03:37:16;;;;;;;;;;;;;;;29.99;100.00;98130.19;5100556;28;19954;-68
2023/08/22 03:39:43;;;;;;;;;;;;;;;29.99;100.00;98127.44;5103086;28;19924;-66
2023/08/22 03:42:10;;;;;;;;;;;;;;;29.99;100.00;98127.44;5102922;28;19931;-66
2023/08/22 03:44:36;;;;;;;;;;;;;;;29.98;100.00;98130.59;5099331;28;19924;-66
2023/08/22 03:47:03;;;;;;;;;;;;;;;29.93;100.00;98133.69;5092450;28;19921;-66
2023/08/22 03:49:29;;;;;;;;;;;;;;;29.93;100.00;98139.19;5102127;28;19963;-67
2023/08/22 03:51:55;;;;;;;;;;;;;;;29.92;100.00;98143.94;5103035;28;20364;-67
2023/08/22 03:54:22;;;;;;;;;;;;;;;29.85;100.00;98137.59;5101058;28;19931;-67
2023/08/22 03:56:49;;;;;;;;;;;;;;;29.93;100.00;98140.00;5099775;28;19956;-67
2023/08/22 03:59:16;;;;;;;;;;;;;;;29.69;100.00;98137.84;5100387;28;19925;-67
2023/08/22 04:01:42;;;;;;;;;;;;;;;29.32;100.00;98137.97;5102805;28;19931;-67
2023/08/22 04:04:09;;;;;;;;;;;;;;;29.21;100.00;98139.03;5102806;28;19924;-67
2023/08/22 04:06:35;;;;;;;;;;;;;;;29.37;100.00;98139.59;5099198;28;19947;-67
2023/08/22 04:09:01;;;;;;;;;;;;;;;29.46;100.00;98142.81;5099272;28;19961;-67
2023/08/22 04:11:28;;;;;;;;;;;;;;;29.53;100.00;98140.09;5101808;28;19931;-67
2023/08/22 04:13:56;;;;;;;;;;;;;;;29.38;100.00;98141.94;5102795;28;19921;-67
2023/08/22 04:16:22;;;;;;;;;;;;;;;29.21;100.00;98139.81;5093833;28;19936;-66
2023/08/22 04:18:49;;;;;;;;;;;;;;;29.47;100.00;98144.38;5099139;28;19967;-66
2023/08/22 04:21:15;;;;;;;;;;;;;;;29.55;100.00;98143.28;5100155;28;19988;-66
2023/08/22 04:23:41;;;;;;;;;;;;;;;29.39;100.00;98137.25;5102560;28;19982;-66
2023/08/22 04:26:08;;;;;;;;;;;;;;;29.32;100.00;98131.69;5103985;28;19927;-66
2023/08/22 04:28:36;;;;;;;;;;;;;;;29.46;100.00;98132.56;5094466;28;19940;-66
2023/08/22 04:31:04;;;;;;;;;;;;;;;29.54;100.00;98136.19;5094478;28;19992;-66
2023/08/22 04:33:31;;;;;;;;;;;;;;;29.53;100.00;98137.34;5094373;28;19978;-67
2023/08/22 04:35:57;;;;;;;;;;;;;;;29.27;100.00;98141.09;5094154;28;19936;-67
2023/08/22 04:38:23;;;;;;;;;;;;;;;29.34;100.00;98151.34;5094069;28;19935;-67
2023/08/22 04:40:50;;;;;;;;;;;;;;;29.49;100.00;98146.75;5093848;28;19928;-67
2023/08/22 04:43:17;;;;;;;;;;;;;;;29.56;100.00;98150.34;5093751;28;19927;-67
2023/08/22 04:45:43;;;;;;;;;;;;;;;29.57;100.00;98140.91;5095481;28;19925;-67
2023/08/22 04:48:11;;;;;;;;;;;;;;;29.54;100.00;98144.44;5102306;28;20499;-67
2023/08/22 04:50:38;;;;;;;;;;;;;;;29.49;100.00;98136.53;5102287;28;19925;-67
2023/08/22 04:53:04;;;;;;;;;;;;;;;29.58;100.00;98149.97;5103321;28;19936;-67
2023/08/22 04:55:30;;;;;;;;;;;;;;;29.45;100.00;98142.00;5105568;28;19924;-67
2023/08/22 04:57:57;;;;;;;;;;;;;;;29.39;100.00;98140.00;5106020;28;19924;-67
2023/08/22 05:00:23;;;;;;;;;;;;;;;29.49;100.00;98142.03;5103592;28;19925;-67
2023/08/22 05:02:49;;;;;;;;;;;;;;;29.61;100.00;98152.75;5102294;28;19935;-67
2023/08/22 05:05:17;;;;;;;;;;;;;;;29.63;100.00;98136.63;5103566;28;19960;-67
2023/08/22 05:07:44;;;;;;;;;;;;;;;29.63;100.00;98144.88;5107864;28;19924;-67
2023/08/22 05:10:10;;;;;;;;;;;;;;;29.65;100.00;98145.28;5105490;28;19925;-67
2023/08/22 05:12:36;;;;;;;;;;;;;;;29.49;100.00;98150.31;5102063;28;19924;-67
2023/08/22 05:15:03;;;;;;;;;;;;;;;29.26;100.00;98147.75;5102621;28;19921;-67
2023/08/22 05:17:30;;;;;;;;;;;;;;;29.35;100.00;98141.91;5097010;28;19943;-67
2023/08/22 05:19:56;;;;;;;;;;;;;;;29.31;100.00;98154.84;5105399;28;19924;-67
2023/08/22 05:22:24;;;;;;;;;;;;;;;29.03;100.00;98152.59;5103204;28;19931;-67
2023/08/22 05:24:50;;;;;;;;;;;;;;;29.25;100.00;98148.13;5101794;28;19959;-67
2023/08/22 05:27:17;;;;;;;;;;;;;;;29.37;100.00;98156.88;5102754;28;19947;-67
2023/08/22 05:29:44;;;;;;;;;;;;;;;29.34;100.00;98156.84;5105062;28;19920;-67
2023/08/22 05:32:10;;;;;;;;;;;;;;;29.05;100.00;98154.97;5104859;28;19928;-67
2023/08/22 05:34:36;;;;;;;;;;;;;;;29.16;100.00;98159.41;5101576;28;19925;-67
2023/08/22 05:37:03;;;;;;;;;;;;;;;29.27;100.00;98152.09;5101353;28;19928;-67
2023/08/22 05:39:30;;;;;;;;;;;;;;;29.35;100.00;98159.22;5104498;28;19928;-67
2023/08/22 05:41:57;;;;;;;;;;;;;;;29.15;100.00;98160.59;5105174;28;19924;-67
2023/08/22 05:44:23;;;;;;;;;;;;;;;29.25;100.00;98159.13;5103001;28;19935;-67
2023/08/22 05:46:49;;;;;;;;;;;;;;;28.84;100.00;98167.34;5094694;28;19924;-67
2023/08/22 05:49:16;;;;;;;;;;;;;;;28.39;100.00;98173.88;5102299;28;20418;-67
2023/08/22 05:51:42;;;;;;;;;;;;;;;28.41;100.00;98174.28;5104882;28;19955;-67
2023/08/22 05:54:09;;;;;;;;;;;;;;;28.74;100.00;98164.47;5103910;28;19924;-67
2023/08/22 05:56:36;;;;;;;;;;;;;;;28.88;100.00;98168.16;5101136;28;19925;-67
2023/08/22 05:59:03;;;;;;;;;;;;;;;28.92;100.00;98166.25;5101161;28;19924;-67
2023/08/22 06:01:29;;;;;;;;;;;;;;;28.88;100.00;98170.13;5104018;28;19928;-67
2023/08/22 06:03:56;;;;;;;;;;;;;;;29.02;100.00;98175.00;5104698;28;19924;-67
2023/08/22 06:06:22;;;;;;;;;;;;;;;29.02;100.00;98169.50;5102552;28;19931;-67
2023/08/22 06:08:48;;;;;;;;;;;;;;;29.46;100.00;98170.31;5100694;28;20537;-67
2023/08/22 06:11:15;;;;;;;;;;;;;;;29.81;100.00;98167.81;5101419;28;19924;-67
2023/08/22 06:13:42;;;;;;;;;;;;;;;30.03;100.00;98163.28;5104149;28;19923;-67
2023/08/22 06:16:10;;;;;;;;;;;;;;;30.19;100.00;98165.72;5097579;28;19932;-67
2023/08/22 06:18:37;;;;;;;;;;;;;;;30.33;100.00;98168.56;5101071;28;19931;-67
2023/08/22 06:21:04;;;;;;;;;;;;;;;30.45;100.00;98171.75;5101128;28;19924;-67
2023/08/22 06:23:30;;;;;;;;;;;;;;;30.21;100.00;98172.41;5103782;28;19924;-67
2023/08/22 06:25:56;;;;;;;;;;;;;;;30.07;100.00;98166.03;5104535;28;19924;-67
2023/08/22 06:28:23;;;;;;;;;;;;;;;30.04;100.00;98167.59;5102070;28;19954;-67
2023/08/22 06:30:50;;;;;;;;;;;;;;;29.89;100.00;98176.97;5100666;28;19932;-67
2023/08/22 06:33:17;;;;;;;;;;;;;;;30.03;100.00;98173.50;5101652;28;19984;-67
2023/08/22 06:35:46;;;;;;;;;;;;;;;30.32;100.00;98178.00;5103980;28;19968;-67
2023/08/22 06:38:12;;;;;;;;;;;;;;;30.40;100.00;98168.59;5103526;28;19931;-67
2023/08/22 06:40:39;;;;;;;;;;;;;;;30.48;100.00;98173.75;5100398;28;19920;-67
2023/08/22 06:43:06;;;;;;;;;;;;;;;30.45;100.00;98174.53;5100406;28;20419;-67
2023/08/22 06:45:32;;;;;;;;;;;;;;;30.53;100.00;98167.09;5101914;28;19925;-67
2023/08/22 06:48:00;;;;;;;;;;;;;;;30.63;100.00;98166.34;5098378;28;19971;-67
2023/08/22 06:50:27;;;;;;;;;;;;;;;30.60;100.00;98164.34;5100876;28;19924;-67
2023/08/22 06:52:53;;;;;;;;;;;;;;;30.47;100.00;98152.88;5100089;28;19928;-67
2023/08/22 06:55:19;;;;;;;;;;;;;;;30.28;100.00;98160.63;5101336;28;19956;-67
2023/08/22 06:57:46;;;;;;;;;;;;;;;30.14;100.00;98153.13;5103526;28;19924;-67
2023/08/22 07:00:14;;;;;;;;;;;;;;;29.34;100.00;98157.63;5102720;28;19970;-67
2023/08/22 07:02:41;;;;;;;;;;;;;;;29.25;100.00;98159.13;5099957;28;19928;-67
2023/08/22 07:05:10;;;;;;;;;;;;;;;29.00;100.00;98160.84;5099894;28;20015;-67
2023/08/22 07:07:37;;;;;;;;;;;;;;;29.34;100.00;98162.34;5091490;28;19924;-67
2023/08/22 07:10:05;;;;;;;;;;;;;;;29.53;100.00;98153.06;5091366;28;20047;-67
2023/08/22 07:12:31;;;;;;;;;;;;;;;29.58;100.00;98156.28;5091267;28;19939;-67
2023/08/22 07:14:58;;;;;;;;;;;;;;;29.74;100.00;98148.50;5091427;28;19920;-67
2023/08/22 07:17:24;;;;;;;;;;;;;;;29.43;100.00;98152.59;5094752;28;19950;-67
2023/08/22 07:19:51;;;;;;;;;;;;;;;29.47;100.00;98149.88;5103279;28;20304;-67
2023/08/22 07:22:18;;;;;;;;;;;;;;;29.64;100.00;98149.22;5101928;28;19927;-66
2023/08/22 07:24:45;;;;;;;;;;;;;;;29.43;100.00;98154.59;5099491;28;19946;-67
2023/08/22 07:27:12;;;;;;;;;;;;;;;30.60;100.00;98139.56;5098912;28;19955;-67
2023/08/22 07:29:39;;;;;;;;;;;;;;;30.46;100.00;98150.50;5102968;28;19959;-67
2023/08/22 07:32:05;;;;;;;;;;;;;;;30.16;100.00;98147.19;5102995;28;19931;-67
2023/08/22 07:34:33;;;;;;;;;;;;;;;29.76;100.00;98139.88;5099694;28;19930;-67
2023/08/22 07:36:59;;;;;;;;;;;;;;;29.89;100.00;98139.22;5099567;28;19931;-67
2023/08/22 07:39:28;;;;;;;;;;;;;;;30.33;100.00;98143.75;5101762;28;19924;-67
2023/08/22 07:41:54;;;;;;;;;;;;;;;29.80;100.00;98138.69;5102862;28;19987;-67
2023/08/22 07:44:21;;;;;;;;;;;;;;;29.75;100.00;98136.31;5101139;28;19924;-68
2023/08/22 07:46:47;;;;;;;;;;;;;;;29.58;100.00;98142.50;5092463;28;19924;-66
2023/08/22 07:49:14;;;;;;;;;;;;;;;29.20;100.00;98142.94;5099772;28;19924;-66
2023/08/22 07:51:40;;;;;;;;;;;;;;;29.23;100.00;98153.19;5102747;28;19951;-66
2023/08/22 07:54:06;;;;;;;;;;;;;;;29.39;100.00;98145.50;5102744;28;20429;-66
2023/08/22 07:56:35;;;;;;;;;;;;;;;29.51;100.00;98153.44;5099351;28;19952;-67
2023/08/22 07:59:02;;;;;;;;;;;;;;;29.83;100.00;98154.47;5099127;28;19928;-67
2023/08/22 08:01:28;;;;;;;;;;;;;;;29.79;100.00;98155.63;5105455;28;19924;-66
2023/08/22 08:03:55;;;;;;;;;;;;;;;29.98;100.00;98149.88;5106661;28;19924;-66
2023/08/22 08:06:22;;;;;;;;;;;;;;;29.91;100.00;98153.38;5104841;28;19991;-68
2023/08/22 08:08:48;;;;;;;;;;;;;;;30.20;100.00;98146.06;5103347;28;19942;-68
2023/08/22 08:11:15;;;;;;;;;;;;;;;30.30;100.00;98150.81;5103878;28;19948;-66
2023/08/22 08:13:42;;;;;;;;;;;;;;;30.04;100.00;98150.28;5106462;28;19928;-67
2023/08/22 08:16:09;;;;;;;;;;;;;;;30.11;100.00;98155.84;5099658;28;20040;-66
2023/08/22 08:18:35;;;;;;;;;;;;;;;30.01;100.00;98156.56;5094537;28;19947;-66
2023/08/22 08:21:02;;;;;;;;;;;;;;;29.67;100.00;98153.19;5094421;28;20403;-66
2023/08/22 08:23:29;;;;;;;;;;;;;;;29.84;100.00;98153.31;5094540;28;19924;-67
2023/08/22 08:25:55;;;;;;;;;;;;;;;29.68;100.00;98150.03;5094563;28;19954;-67
2023/08/22 08:28:23;;;;;;;;;;;;;;;30.05;100.00;98158.16;5101551;28;19928;-67
2023/08/22 08:30:51;;;;;;;;;;;;;;;30.38;100.00;98160.69;5094305;28;19971;-67
2023/08/22 08:33:17;;;;;;;;;;;;;;;30.56;100.00;98155.28;5103890;28;19970;-67
2023/08/22 08:35:44;;;;;;;;;;;;;;;30.72;100.00;98158.50;5106157;28;19950;-67
2023/08/22 08:38:10;;;;;;;;;;;;;;;30.65;100.00;98155.69;5105660;28;19931;-66
2023/08/22 08:40:37;;;;;;;;;;;;;;;30.70;100.00;98149.78;5102692;28;19925;-66
2023/08/22 08:43:04;;;;;;;;;;;;;;;30.93;100.00;98155.78;5102461;28;20034;-67
2023/08/22 08:45:30;;;;;;;;;;;;;;;30.80;100.00;98149.03;5104665;28;19996;-67
2023/08/22 08:47:59;;;;;;;;;;;;;;;30.58;100.00;98154.91;5100879;28;19920;-66
2023/08/22 08:50:26;;;;;;;;;;;;;;;30.54;100.00;98146.63;5103547;28;19979;-66
2023/08/22 08:52:52;;;;;;;;;;;;;;;30.78;100.00;98148.66;5102748;28;19927;-68
2023/08/22 08:55:19;;;;;;;;;;;;;;;30.54;100.00;98152.13;5103610;28;19921;-67
2023/08/22 08:57:46;;;;;;;;;;;;;;;30.19;100.00;98151.94;5105556;28;19924;-67
2023/08/22 09:00:15;;;;;;;;;;;;;;;30.11;100.00;98150.34;5104793;28;19920;-67
2023/08/22 09:02:41;;;;;;;;;;;;;;;30.03;100.00;98151.47;5102085;28;19940;-67
2023/08/22 09:05:10;;;;;;;;;;;;;;;29.83;100.00;98146.22;5102015;28;19970;-67
2023/08/22 09:07:37;;;;;;;;;;;;;;;29.70;100.00;98152.41;5101938;28;19932;-67
2023/08/22 09:10:04;;;;;;;;;;;;;;;29.88;100.00;98154.13;5101727;28;19949;-67
2023/08/22 09:12:33;;;;;;;;;;;;;;;30.21;100.00;98160.59;5103806;28;19928;-67
2023/08/22 09:15:00;;;;;;;;;;;;;;;30.49;100.00;98156.03;5105480;28;20725;-67
2023/08/22 09:17:28;;;;;;;;;;;;;;;30.45;100.00;98155.22;5106173;28;19925;-67
2023/08/22 09:19:55;;;;;;;;;;;;;;;31.09;100.00;98149.13;5105130;28;19924;-67
2023/08/22 09:22:29;;;;;;;;;;;;;;;31.23;100.00;98146.38;5103438;28;19955;-67
2023/08/22 09:24:55;;;;;;;;;;;;;;;31.63;98.37;98148.75;5101411;28;19925;-66
2023/08/22 09:27:22;;;;;;;;;;;;;;;31.77;97.91;98151.53;5103146;28;19985;-66
2023/08/22 09:29:49;;;;;;;;;;;;;;;31.70;95.27;98147.97;5105023;28;19924;-67
2023/08/22 09:32:15;;;;;;;;;;;;;;;31.38;98.29;98145.97;5104105;28;20027;-67
2023/08/22 09:34:53;;;;;;;;;;;;;;;31.20;100.00;98141.63;5100972;28;19960;-66
2023/08/22 09:37:31;;;;;;;;;;;;;;;31.49;100.00;98149.56;5102461;28;19925;-66
2023/08/22 09:39:57;;;;;;;;;;;;;;;31.55;96.63;98133.41;5104540;28;19956;-66
2023/08/22 09:42:24;;;;;;;;;;;;;;;31.60;97.96;98140.50;5102335;28;20299;-67
2023/08/22 09:44:52;;;;;;;;;;;;;;;32.14;96.02;98142.78;5101362;28;19959;-67
2023/08/22 09:47:18;;;;;;;;;;;;;;;32.11;94.15;98137.25;5095612;28;19952;-67
2023/08/22 09:49:47;;;;;;;;;;;;;;;31.76;94.77;98124.28;5104624;28;19946;-66
2023/08/22 09:52:13;;;;;;;;;;;;;;;31.76;95.90;98133.38;5104405;28;19923;-67
2023/08/22 09:54:41;;;;;;;;;;;;;;;32.11;95.27;98135.28;5101311;28;19970;-66
2023/08/22 09:57:09;;;;;;;;;;;;;;;31.88;91.86;98123.84;5101115;28;19995;-66
2023/08/22 09:59:35;;;;;;;;;;;;;;;32.32;93.70;98129.69;5092671;28;19928;-66
2023/08/22 10:02:04;;;;;;;;;;;;;;;32.70;89.65;98118.84;5092733;28;19928;-67
2023/08/22 10:04:31;;;;;;;;;;;;;;;32.88;89.04;98131.38;5092372;28;19935;-67
2023/08/22 10:06:57;;;;;;;;;;;;;;;32.82;89.52;98121.94;5092432;28;19929;-67
2023/08/22 10:09:24;;;;;;;;;;;;;;;32.92;89.13;98120.31;5092306;28;19964;-67
2023/08/22 10:11:53;;;;;;;;;;;;;;;33.01;86.06;98124.19;5092307;28;20000;-67
2023/08/22 10:14:21;;;;;;;;;;;;;;;33.40;83.82;98112.84;5092157;28;20468;-67
2023/08/22 10:16:48;;;;;;;;;;;;;;;33.16;80.40;98113.81;5104063;28;19920;-67
2023/08/22 10:19:14;;;;;;;;;;;;;;;33.01;80.89;98117.88;5100996;28;19992;-67
2023/08/22 10:21:44;;;;;;;;;;;;;;;32.71;78.70;98104.63;5104012;28;19924;-67
2023/08/22 10:24:19;;;;;;;;;;;;;;;32.50;78.59;98115.75;5102897;28;19949;-67
2023/08/22 10:26:58;;;;;;;;;;;;;;;32.36;78.30;98107.56;5100627;28;19925;-67
2023/08/22 10:29:25;;;;;;;;;;;;;;;32.25;76.57;98104.81;5101263;28;19975;-67
2023/08/22 10:32:11;;;;;;;;;;;;;;;32.20;74.08;98096.97;5103790;28;19932;-67
2023/08/22 10:34:54;;;;;;;;;;;;;;;32.28;77.40;98097.72;5100336;28;19931;-68
2023/08/22 10:37:26;;;;;;;;;;;;;;;32.50;78.04;98104.72;5102355;28;19925;-67
2023/08/22 10:39:53;;;;;;;;;;;;;;;32.56;75.08;98101.16;5103889;28;20242;-68
2023/08/22 10:42:20;;;;;;;;;;;;;;;32.86;80.38;98095.06;5102393;28;19986;-68
2023/08/22 10:44:50;;;;;;;;;;;;;;;33.03;77.12;98096.91;5100152;28;19959;-68
2023/08/22 10:47:17;;;;;;;;;;;;;;;32.71;76.43;98088.03;5094288;28;20414;-68
2023/08/22 10:49:43;;;;;;;;;;;;;;;33.12;78.80;98079.84;5103471;28;19928;-68
2023/08/22 10:52:11;;;;;;;;;;;;;;;33.09;76.69;98084.22;5103410;28;19950;-68
2023/08/22 10:54:52;;;;;;;;;;;;;;;33.07;74.28;98083.03;5099950;28;19924;-68
2023/08/22 10:57:19;;;;;;;;;;;;;;;33.30;78.03;98080.47;5101378;27;19920;-68
2023/08/22 11:00:05;;;;;;;;;;;;;;;33.21;74.46;98084.94;5103435;28;19931;-68
2023/08/22 11:02:32;;;;;;;;;;;;;;;33.08;77.78;98073.56;5100365;28;19925;-67
2023/08/22 11:04:59;;;;;;;;;;;;;;;33.09;75.87;98084.22;5099400;28;19966;-67
2023/08/22 11:07:26;;;;;;;;;;;;;;;33.37;77.48;98068.56;5101644;28;19967;-67
2023/08/22 11:09:54;;;;;;;;;;;;;;;33.64;76.46;98066.75;5103048;28;19924;-67
2023/08/22 11:12:21;;;;;;;;;;;;;;;33.65;71.88;98066.34;5101587;28;19939;-68
2023/08/22 11:14:47;;;;;;;;;;;;;;;33.74;74.63;98054.75;5099440;28;19968;-67
2023/08/22 11:17:15;;;;;;;;;;;;;;;33.85;73.46;98060.97;5102956;28;19947;-68
2023/08/22 11:19:42;;;;;;;;;;;;;;;33.71;72.54;98061.13;5103372;28;19924;-68
2023/08/22 11:22:09;;;;;;;;;;;;;;;33.86;73.85;98062.53;5103335;28;20613;-67
2023/08/22 11:24:35;;;;;;;;;;;;;;;34.06;73.92;98055.19;5091433;28;19975;-67
2023/08/22 11:27:02;;;;;;;;;;;;;;;34.22;73.34;98057.38;5091359;28;19925;-68
2023/08/22 11:29:28;;;;;;;;;;;;;;;34.05;68.47;98070.22;5091234;28;20027;-68
2023/08/22 11:31:54;;;;;;;;;;;;;;;33.85;70.65;98060.97;5091016;28;19927;-66
2023/08/22 11:34:23;;;;;;;;;;;;;;;33.72;70.62;98059.94;5090640;28;19921;-67
2023/08/22 11:36:49;;;;;;;;;;;;;;;33.92;73.71;98066.41;5090962;28;19925;-68
2023/08/22 11:39:16;;;;;;;;;;;;;;;34.17;72.40;98055.84;5090716;28;19924;-67
2023/08/22 11:41:42;;;;;;;;;;;;;;;34.29;72.58;98062.06;5090814;28;19924;-67
2023/08/22 11:44:13;;;;;;;;;;;;;;;34.38;70.28;98059.56;5090539;28;19924;-67
2023/08/22 11:46:41;;;;;;;;;;;;;;;34.38;70.11;98059.56;5091921;28;20298;-67
2023/08/22 11:49:08;;;;;;;;;;;;;;;34.26;68.56;98051.81;5099114;28;19967;-67
2023/08/22 11:51:35;;;;;;;;;;;;;;;34.27;68.85;98061.66;5102172;28;19932;-67
2023/08/22 11:54:02;;;;;;;;;;;;;;;34.25;70.06;98058.53;5102410;28;19924;-67
2023/08/22 11:56:29;;;;;;;;;;;;;;;34.40;65.41;98052.38;5098830;28;19962;-67
2023/08/22 11:58:55;;;;;;;;;;;;;;;34.23;66.81;98056.16;5098811;28;19931;-68
2023/08/22 12:01:23;;;;;;;;;;;;;;;34.27;68.98;98045.03;5099858;28;19936;-68
2023/08/22 12:03:50;;;;;;;;;;;;;;;34.39;69.12;98044.47;5102550;28;19924;-68
2023/08/22 12:06:16;;;;;;;;;;;;;;;34.42;68.90;98054.72;5101583;28;19931;-68
2023/08/22 12:08:54;;;;;;;;;;;;;;;34.46;69.39;98050.72;5098984;28;19926;-67
2023/08/22 12:11:24;;;;;;;;;;;;;;;34.42;67.71;98054.72;5100278;28;19931;-67
2023/08/22 12:13:51;;;;;;;;;;;;;;;34.38;69.51;98048.47;5102408;28;19924;-68
2023/08/22 12:16:17;;;;;;;;;;;;;;;34.42;69.91;98043.63;5104889;28;20610;-67
2023/08/22 12:18:43;;;;;;;;;;;;;;;34.54;66.57;98052.16;5098978;28;19920;-68
2023/08/22 12:21:10;;;;;;;;;;;;;;;34.43;65.96;98053.53;5098969;28;19924;-67
2023/08/22 12:23:37;;;;;;;;;;;;;;;34.45;63.80;98043.59;5101499;28;19924;-68
2023/08/22 12:26:05;;;;;;;;;;;;;;;34.42;62.91;98052.75;5102382;28;19924;-68
2023/08/22 12:28:31;;;;;;;;;;;;;;;34.43;61.37;98048.78;5099338;28;20538;-68
2023/08/22 12:30:58;;;;;;;;;;;;;;;34.47;63.17;98040.41;5098963;28;19924;-68
2023/08/22 12:33:24;;;;;;;;;;;;;;;34.56;60.99;98043.44;5100826;28;19921;-68
2023/08/22 12:35:50;;;;;;;;;;;;;;;34.47;64.40;98035.66;5102451;28;19924;-67
2023/08/22 12:38:17;;;;;;;;;;;;;;;34.59;63.94;98039.84;5101739;28;19924;-66